sensor_id;sensor_type;location;lat;lon;timestamp;P1;P2;P0
29062;PMS5003;71206;48.564;-123.458;2024-01-15T00:01:24;11;8;
29062;PMS5003;71206;48.564;-123.458;2024-01-15T00:03:50;9;7;
29062;PMS5003;71206;48.564;-123.458;2024-01-15T00:06:16;12;12;
29062;PMS5003;71206;48.564;-123.458;2024-01-15T00:08:41;10;8;
29062;PMS5003;71206;48.564;-123.458;2024-01-15T00:11:07;14;12;
29062;PMS5003;71206;48.564;-123.458;2024-01-15T00:13:33;8;8;
29062;PMS5003;71206;48.564;-123.458;2024-01-15T00:15:58;7;7;
29062;PMS5003;71206;48.564;-123.458;2024-01-15T00:18:24;8;7;
29062;PMS5003;71206;48.564;-123.458;2024-01-15T00:20:50;7;7;
29062;PMS5003;71206;48.564;-123.458;2024-01-15T00:23:18;9;7;
29062;PMS5003;71206;48.564;-123.458;2024-01-15T00:25:41;7;7;
29062;PMS5003;71206;48.564;-123.458;2024-01-15T00:28:06;5;5;
29062;PMS5003;71206;48.564;-123.458;2024-01-15T00:30:32;8;7;
29062;PMS5003;71206;48.564;-123.458;2024-01-15T00:32:58;5;4;
29062;PMS5003;71206;48.564;-123.458;2024-01-15T00:35:23;5;5;
29062;PMS5003;71206;48.564;-123.458;2024-01-15T00:37:49;11;8;
29062;PMS5003;71206;48.564;-123.458;2024-01-15T00:40:15;10;7;
29062;PMS5003;71206;48.564;-123.458;2024-01-15T00:42:43;5;5;
29062;PMS5003;71206;48.564;-123.458;2024-01-15T00:45:06;7;7;
29062;PMS5003;71206;48.564;-123.458;2024-01-15T00:47:33;5;5;
29062;PMS5003;71206;48.564;-123.458;2024-01-15T00:49:57;14;11;
29062;PMS5003;71206;48.564;-123.458;2024-01-15T00:52:22;42;37;
29062;PMS5003;71206;48.564;-123.458;2024-01-15T00:54:48;29;24;
29062;PMS5003;71206;48.564;-123.458;2024-01-15T00:57:13;39;33;
29062;PMS5003;71206;48.564;-123.458;2024-01-15T00:59:38;63;55;
29062;PMS5003;71206;48.564;-123.458;2024-01-15T01:02:04;54;41;
29062;PMS5003;71206;48.564;-123.458;2024-01-15T01:04:29;53;47;
29062;PMS5003;71206;48.564;-123.458;2024-01-15T01:06:54;60;50;
29062;PMS5003;71206;48.564;-123.458;2024-01-15T01:09:20;37;28;
29062;PMS5003;71206;48.564;-123.458;2024-01-15T01:11:45;26;21;
29062;PMS5003;71206;48.564;-123.458;2024-01-15T01:14:10;23;17;
29062;PMS5003;71206;48.564;-123.458;2024-01-15T01:16:36;21;17;
29062;PMS5003;71206;48.564;-123.458;2024-01-15T01:19:01;30;20;
29062;PMS5003;71206;48.564;-123.458;2024-01-15T01:21:27;35;30;
29062;PMS5003;71206;48.564;-123.458;2024-01-15T01:23:53;34;24;
29062;PMS5003;71206;48.564;-123.458;2024-01-15T01:26:19;25;18;
29062;PMS5003;71206;48.564;-123.458;2024-01-15T01:28:43;31;21;
29062;PMS5003;71206;48.564;-123.458;2024-01-15T01:31:09;27;22;
29062;PMS5003;71206;48.564;-123.458;2024-01-15T01:33:34;21;15;
29062;PMS5003;71206;48.564;-123.458;2024-01-15T01:36:07;21;17;
29062;PMS5003;71206;48.564;-123.458;2024-01-15T01:38:25;17;15;
29062;PMS5003;71206;48.564;-123.458;2024-01-15T01:40:50;15;15;
29062;PMS5003;71206;48.564;-123.458;2024-01-15T01:43:17;25;15;
29062;PMS5003;71206;48.564;-123.458;2024-01-15T01:45:41;15;12;
29062;PMS5003;71206;48.564;-123.458;2024-01-15T01:48:07;18;18;
29062;PMS5003;71206;48.564;-123.458;2024-01-15T01:50:31;24;17;
29062;PMS5003;71206;48.564;-123.458;2024-01-15T01:52:57;33;27;
29062;PMS5003;71206;48.564;-123.458;2024-01-15T01:55:24;44;43;
29062;PMS5003;71206;48.564;-123.458;2024-01-15T01:57:48;51;44;
29062;PMS5003;71206;48.564;-123.458;2024-01-15T02:00:14;69;47;
29062;PMS5003;71206;48.564;-123.458;2024-01-15T02:02:39;57;46;
29062;PMS5003;71206;48.564;-123.458;2024-01-15T02:05:06;34;25;
29062;PMS5003;71206;48.564;-123.458;2024-01-15T02:07:31;27;23;
29062;PMS5003;71206;48.564;-123.458;2024-01-15T02:09:57;27;25;
29062;PMS5003;71206;48.564;-123.458;2024-01-15T02:12:21;84;69;
29062;PMS5003;71206;48.564;-123.458;2024-01-15T02:14:46;21;20;
29062;PMS5003;71206;48.564;-123.458;2024-01-15T02:17:17;17;14;
29062;PMS5003;71206;48.564;-123.458;2024-01-15T02:19:37;14;11;
29062;PMS5003;71206;48.564;-123.458;2024-01-15T02:22:06;23;20;
29062;PMS5003;71206;48.564;-123.458;2024-01-15T02:24:29;23;17;
29062;PMS5003;71206;48.564;-123.458;2024-01-15T02:26:54;17;14;
29062;PMS5003;71206;48.564;-123.458;2024-01-15T02:29:20;15;11;
29062;PMS5003;71206;48.564;-123.458;2024-01-15T02:31:46;17;14;
29062;PMS5003;71206;48.564;-123.458;2024-01-15T02:34:12;15;14;
29062;PMS5003;71206;48.564;-123.458;2024-01-15T02:36:37;17;14;
29062;PMS5003;71206;48.564;-123.458;2024-01-15T02:39:07;18;14;
29062;PMS5003;71206;48.564;-123.458;2024-01-15T02:41:28;18;17;
29062;PMS5003;71206;48.564;-123.458;2024-01-15T02:43:56;24;23;
29062;PMS5003;71206;48.564;-123.458;2024-01-15T02:46:19;26;21;
29062;PMS5003;71206;48.564;-123.458;2024-01-15T02:48:45;26;24;
29062;PMS5003;71206;48.564;-123.458;2024-01-15T02:51:10;24;23;
29062;PMS5003;71206;48.564;-123.458;2024-01-15T02:53:36;21;18;
29062;PMS5003;71206;48.564;-123.458;2024-01-15T02:56:01;24;17;
29062;PMS5003;71206;48.564;-123.458;2024-01-15T02:58:29;18;15;
29062;PMS5003;71206;48.564;-123.458;2024-01-15T03:00:57;20;18;
29062;PMS5003;71206;48.564;-123.458;2024-01-15T03:03:18;14;13;
29062;PMS5003;71206;48.564;-123.458;2024-01-15T03:05:44;15;13;
29062;PMS5003;71206;48.564;-123.458;2024-01-15T03:08:10;13;11;
29062;PMS5003;71206;48.564;-123.458;2024-01-15T03:10:35;10;10;
29062;PMS5003;71206;48.564;-123.458;2024-01-15T03:13:01;7;7;
29062;PMS5003;71206;48.564;-123.458;2024-01-15T03:15:27;11;8;
29062;PMS5003;71206;48.564;-123.458;2024-01-15T03:17:52;10;8;
29062;PMS5003;71206;48.564;-123.458;2024-01-15T03:20:17;11;11;
29062;PMS5003;71206;48.564;-123.458;2024-01-15T03:22:43;10;7;
29062;PMS5003;71206;48.564;-123.458;2024-01-15T03:25:09;10;8;
29062;PMS5003;71206;48.564;-123.458;2024-01-15T03:27:34;11;10;
29062;PMS5003;71206;48.564;-123.458;2024-01-15T03:30:02;8;8;
29062;PMS5003;71206;48.564;-123.458;2024-01-15T03:32:26;10;8;
29062;PMS5003;71206;48.564;-123.458;2024-01-15T03:34:52;16;13;
29062;PMS5003;71206;48.564;-123.458;2024-01-15T03:37:17;16;13;
29062;PMS5003;71206;48.564;-123.458;2024-01-15T03:39:43;19;13;
29062;PMS5003;71206;48.564;-123.458;2024-01-15T03:42:08;39;32;
29062;PMS5003;71206;48.564;-123.458;2024-01-15T03:44:34;42;38;
29062;PMS5003;71206;48.564;-123.458;2024-01-15T03:47:00;49;42;
29062;PMS5003;71206;48.564;-123.458;2024-01-15T03:49:25;39;33;
29062;PMS5003;71206;48.564;-123.458;2024-01-15T03:51:51;33;30;
29062;PMS5003;71206;48.564;-123.458;2024-01-15T03:54:18;20;20;
29062;PMS5003;71206;48.564;-123.458;2024-01-15T03:56:42;26;22;
29062;PMS5003;71206;48.564;-123.458;2024-01-15T03:59:08;14;14;
29062;PMS5003;71206;48.564;-123.458;2024-01-15T04:01:34;20;17;
29062;PMS5003;71206;48.564;-123.458;2024-01-15T04:03:59;24;21;
29062;PMS5003;71206;48.564;-123.458;2024-01-15T04:06:25;21;19;
29062;PMS5003;71206;48.564;-123.458;2024-01-15T04:08:51;20;19;
29062;PMS5003;71206;48.564;-123.458;2024-01-15T04:11:14;21;20;
29062;PMS5003;71206;48.564;-123.458;2024-01-15T04:13:40;19;14;
29062;PMS5003;71206;48.564;-123.458;2024-01-15T04:16:06;23;19;
29062;PMS5003;71206;48.564;-123.458;2024-01-15T04:18:32;25;20;
29062;PMS5003;71206;48.564;-123.458;2024-01-15T04:20:56;28;22;
29062;PMS5003;71206;48.564;-123.458;2024-01-15T04:23:23;117;98;
29062;PMS5003;71206;48.564;-123.458;2024-01-15T04:25:48;105;85;
29062;PMS5003;71206;48.564;-123.458;2024-01-15T04:28:16;89;74;
29062;PMS5003;71206;48.564;-123.458;2024-01-15T04:30:39;81;78;
29062;PMS5003;71206;48.564;-123.458;2024-01-15T04:33:05;78;56;
29062;PMS5003;71206;48.564;-123.458;2024-01-15T04:35:30;51;47;
29062;PMS5003;71206;48.564;-123.458;2024-01-15T04:37:55;45;39;
29062;PMS5003;71206;48.564;-123.458;2024-01-15T04:40:21;52;44;
29062;PMS5003;71206;48.564;-123.458;2024-01-15T04:42:46;36;35;
29062;PMS5003;71206;48.564;-123.458;2024-01-15T04:45:14;38;32;
29062;PMS5003;71206;48.564;-123.458;2024-01-15T04:47:37;46;37;
29062;PMS5003;71206;48.564;-123.458;2024-01-15T04:50:03;54;48;
29062;PMS5003;71206;48.564;-123.458;2024-01-15T04:52:28;65;61;
29062;PMS5003;71206;48.564;-123.458;2024-01-15T04:54:54;55;49;
29062;PMS5003;71206;48.564;-123.458;2024-01-15T04:57:19;64;55;
29062;PMS5003;71206;48.564;-123.458;2024-01-15T04:59:44;55;49;
29062;PMS5003;71206;48.564;-123.458;2024-01-15T05:02:10;31;29;
29062;PMS5003;71206;48.564;-123.458;2024-01-15T05:04:36;32;29;
29062;PMS5003;71206;48.564;-123.458;2024-01-15T05:07:02;35;31;
29062;PMS5003;71206;48.564;-123.458;2024-01-15T05:09:28;38;29;
29062;PMS5003;71206;48.564;-123.458;2024-01-15T05:11:52;40;35;
29062;PMS5003;71206;48.564;-123.458;2024-01-15T05:14:17;38;34;
29062;PMS5003;71206;48.564;-123.458;2024-01-15T05:16:46;47;43;
29062;PMS5003;71206;48.564;-123.458;2024-01-15T05:19:09;35;26;
29062;PMS5003;71206;48.564;-123.458;2024-01-15T05:21:34;34;31;
29062;PMS5003;71206;48.564;-123.458;2024-01-15T05:23:59;43;40;
29062;PMS5003;71206;48.564;-123.458;2024-01-15T05:26:26;43;32;
29062;PMS5003;71206;48.564;-123.458;2024-01-15T05:28:50;49;41;
29062;PMS5003;71206;48.564;-123.458;2024-01-15T05:31:15;53;49;
29062;PMS5003;71206;48.564;-123.458;2024-01-15T05:33:41;41;28;
29062;PMS5003;71206;48.564;-123.458;2024-01-15T05:36:06;48;37;
29062;PMS5003;71206;48.564;-123.458;2024-01-15T05:38:32;36;31;
29062;PMS5003;71206;48.564;-123.458;2024-01-15T05:41:00;56;46;
29062;PMS5003;71206;48.564;-123.458;2024-01-15T05:43:24;40;35;
29062;PMS5003;71206;48.564;-123.458;2024-01-15T05:45:48;46;37;
29062;PMS5003;71206;48.564;-123.458;2024-01-15T05:48:14;49;43;
29062;PMS5003;71206;48.564;-123.458;2024-01-15T05:50:39;53;44;
29062;PMS5003;71206;48.564;-123.458;2024-01-15T05:53:05;58;46;
29062;PMS5003;71206;48.564;-123.458;2024-01-15T05:55:30;64;47;
29062;PMS5003;71206;48.564;-123.458;2024-01-15T05:57:56;60;51;
29062;PMS5003;71206;48.564;-123.458;2024-01-15T06:00:21;60;48;
29062;PMS5003;71206;48.564;-123.458;2024-01-15T06:02:46;69;57;
29062;PMS5003;71206;48.564;-123.458;2024-01-15T06:05:12;61;50;
29062;PMS5003;71206;48.564;-123.458;2024-01-15T06:07:37;73;58;
29062;PMS5003;71206;48.564;-123.458;2024-01-15T06:10:04;86;64;
29062;PMS5003;71206;48.564;-123.458;2024-01-15T06:12:32;64;55;
29062;PMS5003;71206;48.564;-123.458;2024-01-15T06:14:54;67;50;
29062;PMS5003;71206;48.564;-123.458;2024-01-15T06:17:20;73;66;
29062;PMS5003;71206;48.564;-123.458;2024-01-15T06:19:46;82;63;
29062;PMS5003;71206;48.564;-123.458;2024-01-15T06:22:12;73;57;
29062;PMS5003;71206;48.564;-123.458;2024-01-15T06:24:36;74;64;
29062;PMS5003;71206;48.564;-123.458;2024-01-15T06:27:02;85;68;
29062;PMS5003;71206;48.564;-123.458;2024-01-15T06:29:27;76;58;
29062;PMS5003;71206;48.564;-123.458;2024-01-15T06:31:53;70;56;
29062;PMS5003;71206;48.564;-123.458;2024-01-15T06:34:19;52;46;
29062;PMS5003;71206;48.564;-123.458;2024-01-15T06:36:43;42;40;
29062;PMS5003;71206;48.564;-123.458;2024-01-15T06:39:09;46;39;
29062;PMS5003;71206;48.564;-123.458;2024-01-15T06:41:35;45;42;
29062;PMS5003;71206;48.564;-123.458;2024-01-15T06:44:00;39;30;
29062;PMS5003;71206;48.564;-123.458;2024-01-15T06:46:26;49;39;
29062;PMS5003;71206;48.564;-123.458;2024-01-15T06:48:51;48;43;
29062;PMS5003;71206;48.564;-123.458;2024-01-15T06:51:17;45;39;
29062;PMS5003;71206;48.564;-123.458;2024-01-15T06:53:43;49;40;
29062;PMS5003;71206;48.564;-123.458;2024-01-15T06:56:07;49;42;
29062;PMS5003;71206;48.564;-123.458;2024-01-15T06:58:33;43;37;
29062;PMS5003;71206;48.564;-123.458;2024-01-15T07:00:58;50;43;
29062;PMS5003;71206;48.564;-123.458;2024-01-15T07:03:24;51;45;
29062;PMS5003;71206;48.564;-123.458;2024-01-15T07:05:50;40;31;
29062;PMS5003;71206;48.564;-123.458;2024-01-15T07:08:16;39;34;
29062;PMS5003;71206;48.564;-123.458;2024-01-15T07:10:41;36;34;
29062;PMS5003;71206;48.564;-123.458;2024-01-15T07:13:06;46;39;
29062;PMS5003;71206;48.564;-123.458;2024-01-15T07:15:32;51;43;
29062;PMS5003;71206;48.564;-123.458;2024-01-15T07:17:57;39;36;
29062;PMS5003;71206;48.564;-123.458;2024-01-15T07:20:24;40;36;
29062;PMS5003;71206;48.564;-123.458;2024-01-15T07:22:48;43;34;
29062;PMS5003;71206;48.564;-123.458;2024-01-15T07:25:14;34;30;
29062;PMS5003;71206;48.564;-123.458;2024-01-15T07:27:40;31;31;
29062;PMS5003;71206;48.564;-123.458;2024-01-15T07:30:05;34;33;
29062;PMS5003;71206;48.564;-123.458;2024-01-15T07:32:30;28;27;
29062;PMS5003;71206;48.564;-123.458;2024-01-15T07:34:56;27;24;
29062;PMS5003;71206;48.564;-123.458;2024-01-15T07:37:22;24;22;
29062;PMS5003;71206;48.564;-123.458;2024-01-15T07:39:47;31;28;
29062;PMS5003;71206;48.564;-123.458;2024-01-15T07:42:14;22;21;
29062;PMS5003;71206;48.564;-123.458;2024-01-15T07:44:38;48;43;
29062;PMS5003;71206;48.564;-123.458;2024-01-15T07:47:03;54;43;
29062;PMS5003;71206;48.564;-123.458;2024-01-15T07:49:28;85;61;
29062;PMS5003;71206;48.564;-123.458;2024-01-15T07:51:54;81;72;
29062;PMS5003;71206;48.564;-123.458;2024-01-15T07:54:18;111;78;
29062;PMS5003;71206;48.564;-123.458;2024-01-15T07:59:09;54;46;
29062;PMS5003;71206;48.564;-123.458;2024-01-15T08:01:34;43;34;
29062;PMS5003;71206;48.564;-123.458;2024-01-15T08:04:00;36;36;
29062;PMS5003;71206;48.564;-123.458;2024-01-15T08:06:26;36;30;
29062;PMS5003;71206;48.564;-123.458;2024-01-15T08:08:51;45;31;
29062;PMS5003;71206;48.564;-123.458;2024-01-15T08:11:17;39;31;
29062;PMS5003;71206;48.564;-123.458;2024-01-15T08:13:43;36;33;
29062;PMS5003;71206;48.564;-123.458;2024-01-15T08:16:13;34;30;
29062;PMS5003;71206;48.564;-123.458;2024-01-15T08:18:33;34;30;
29062;PMS5003;71206;48.564;-123.458;2024-01-15T08:20:59;36;30;
29062;PMS5003;71206;48.564;-123.458;2024-01-15T08:23:24;22;22;
29062;PMS5003;71206;48.564;-123.458;2024-01-15T08:25:49;33;27;
29062;PMS5003;71206;48.564;-123.458;2024-01-15T08:28:15;30;22;
29062;PMS5003;71206;48.564;-123.458;2024-01-15T08:30:45;31;28;
29062;PMS5003;71206;48.564;-123.458;2024-01-15T08:33:06;27;22;
29062;PMS5003;71206;48.564;-123.458;2024-01-15T08:35:31;33;27;
29062;PMS5003;71206;48.564;-123.458;2024-01-15T08:37:57;31;25;
29062;PMS5003;71206;48.564;-123.458;2024-01-15T08:40:23;34;22;
29062;PMS5003;71206;48.564;-123.458;2024-01-15T08:42:48;31;28;
29062;PMS5003;71206;48.564;-123.458;2024-01-15T08:45:17;27;25;
29062;PMS5003;71206;48.564;-123.458;2024-01-15T08:47:42;25;22;
29062;PMS5003;71206;48.564;-123.458;2024-01-15T08:50:06;25;22;
29062;PMS5003;71206;48.564;-123.458;2024-01-15T08:52:30;27;22;
29062;PMS5003;71206;48.564;-123.458;2024-01-15T08:54:56;31;22;
29062;PMS5003;71206;48.564;-123.458;2024-01-15T08:57:21;27;24;
29062;PMS5003;71206;48.564;-123.458;2024-01-15T08:59:46;22;19;
29062;PMS5003;71206;48.564;-123.458;2024-01-15T09:02:12;24;21;
29062;PMS5003;71206;48.564;-123.458;2024-01-15T09:04:37;28;25;
29062;PMS5003;71206;48.564;-123.458;2024-01-15T09:07:02;28;21;
29062;PMS5003;71206;48.564;-123.458;2024-01-15T09:09:29;24;18;
29062;PMS5003;71206;48.564;-123.458;2024-01-15T09:11:54;25;22;
29062;PMS5003;71206;48.564;-123.458;2024-01-15T09:14:20;19;16;
29062;PMS5003;71206;48.564;-123.458;2024-01-15T09:16:46;19;19;
29062;PMS5003;71206;48.564;-123.458;2024-01-15T09:19:11;21;19;
29062;PMS5003;71206;48.564;-123.458;2024-01-15T09:21:38;28;24;
29062;PMS5003;71206;48.564;-123.458;2024-01-15T09:24:07;25;19;
29062;PMS5003;71206;48.564;-123.458;2024-01-15T09:26:27;28;24;
29062;PMS5003;71206;48.564;-123.458;2024-01-15T09:28:53;25;24;
29062;PMS5003;71206;48.564;-123.458;2024-01-15T09:31:18;27;24;
29062;PMS5003;71206;48.564;-123.458;2024-01-15T09:33:44;31;27;
29062;PMS5003;71206;48.564;-123.458;2024-01-15T09:36:09;33;27;
29062;PMS5003;71206;48.564;-123.458;2024-01-15T09:38:40;27;25;
29062;PMS5003;71206;48.564;-123.458;2024-01-15T09:41:00;31;27;
29062;PMS5003;71206;48.564;-123.458;2024-01-15T09:43:26;24;22;
29062;PMS5003;71206;48.564;-123.458;2024-01-15T09:45:53;24;18;
29062;PMS5003;71206;48.564;-123.458;2024-01-15T09:48:17;21;16;
29062;PMS5003;71206;48.564;-123.458;2024-01-15T09:50:43;22;21;
29062;PMS5003;71206;48.564;-123.458;2024-01-15T09:53:09;24;19;
29062;PMS5003;71206;48.564;-123.458;2024-01-15T09:55:34;31;21;
29062;PMS5003;71206;48.564;-123.458;2024-01-15T09:58:00;30;25;
29062;PMS5003;71206;48.564;-123.458;2024-01-15T10:00:25;30;28;
29062;PMS5003;71206;48.564;-123.458;2024-01-15T10:02:51;24;19;
29062;PMS5003;71206;48.564;-123.458;2024-01-15T10:05:16;27;24;
29062;PMS5003;71206;48.564;-123.458;2024-01-15T10:07:42;28;24;
29062;PMS5003;71206;48.564;-123.458;2024-01-15T10:10:08;36;30;
29062;PMS5003;71206;48.564;-123.458;2024-01-15T10:12:33;25;24;
29062;PMS5003;71206;48.564;-123.458;2024-01-15T10:14:58;27;21;
29062;PMS5003;71206;48.564;-123.458;2024-01-15T10:17:24;24;21;
29062;PMS5003;71206;48.564;-123.458;2024-01-15T10:19:48;34;27;
29062;PMS5003;71206;48.564;-123.458;2024-01-15T10:22:14;30;25;
29062;PMS5003;71206;48.564;-123.458;2024-01-15T10:24:40;24;22;
29062;PMS5003;71206;48.564;-123.458;2024-01-15T10:27:05;30;25;
29062;PMS5003;71206;48.564;-123.458;2024-01-15T10:29:33;25;22;
29062;PMS5003;71206;48.564;-123.458;2024-01-15T10:31:55;24;21;
29062;PMS5003;71206;48.564;-123.458;2024-01-15T10:34:21;28;24;
29062;PMS5003;71206;48.564;-123.458;2024-01-15T10:36:47;19;18;
29062;PMS5003;71206;48.564;-123.458;2024-01-15T10:39:15;19;16;
29062;PMS5003;71206;48.564;-123.458;2024-01-15T10:41:38;24;21;
29062;PMS5003;71206;48.564;-123.458;2024-01-15T10:44:03;21;19;
29062;PMS5003;71206;48.564;-123.458;2024-01-15T10:46:29;21;19;
29062;PMS5003;71206;48.564;-123.458;2024-01-15T10:48:54;19;18;
29062;PMS5003;71206;48.564;-123.458;2024-01-15T10:51:20;21;21;
29062;PMS5003;71206;48.564;-123.458;2024-01-15T10:53:45;24;19;
29062;PMS5003;71206;48.564;-123.458;2024-01-15T10:56:11;21;16;
29062;PMS5003;71206;48.564;-123.458;2024-01-15T10:58:36;18;18;
29062;PMS5003;71206;48.564;-123.458;2024-01-15T11:01:02;28;27;
29062;PMS5003;71206;48.564;-123.458;2024-01-15T11:03:28;34;27;
29062;PMS5003;71206;48.564;-123.458;2024-01-15T11:05:54;33;30;
29062;PMS5003;71206;48.564;-123.458;2024-01-15T11:08:18;34;28;
29062;PMS5003;71206;48.564;-123.458;2024-01-15T11:10:50;36;33;
29062;PMS5003;71206;48.564;-123.458;2024-01-15T11:13:09;39;33;
29062;PMS5003;71206;48.564;-123.458;2024-01-15T11:18:00;49;39;
29062;PMS5003;71206;48.564;-123.458;2024-01-15T11:20:24;31;27;
29062;PMS5003;71206;48.564;-123.458;2024-01-15T11:22:49;30;27;
29062;PMS5003;71206;48.564;-123.458;2024-01-15T11:25:15;33;30;
29062;PMS5003;71206;48.564;-123.458;2024-01-15T11:27:41;48;39;
29062;PMS5003;71206;48.564;-123.458;2024-01-15T11:30:09;49;33;
29062;PMS5003;71206;48.564;-123.458;2024-01-15T11:32:33;37;27;
29062;PMS5003;71206;48.564;-123.458;2024-01-15T11:34:58;69;51;
29062;PMS5003;71206;48.564;-123.458;2024-01-15T11:37:22;52;37;
29062;PMS5003;71206;48.564;-123.458;2024-01-15T11:39:48;31;24;
29062;PMS5003;71206;48.564;-123.458;2024-01-15T11:42:13;31;25;
29062;PMS5003;71206;48.564;-123.458;2024-01-15T11:44:49;31;28;
29062;PMS5003;71206;48.564;-123.458;2024-01-15T11:47:05;36;28;
29062;PMS5003;71206;48.564;-123.458;2024-01-15T11:49:32;25;22;
29062;PMS5003;71206;48.564;-123.458;2024-01-15T11:51:55;33;27;
29062;PMS5003;71206;48.564;-123.458;2024-01-15T11:54:21;21;18;
29062;PMS5003;71206;48.564;-123.458;2024-01-15T11:56:46;15;15;
29062;PMS5003;71206;48.564;-123.458;2024-01-15T11:59:12;21;16;
29062;PMS5003;71206;48.564;-123.458;2024-01-15T12:01:37;24;16;
29062;PMS5003;71206;48.564;-123.458;2024-01-15T12:04:03;21;15;
29062;PMS5003;71206;48.564;-123.458;2024-01-15T12:06:29;16;15;
29062;PMS5003;71206;48.564;-123.458;2024-01-15T12:11:20;15;13;
29062;PMS5003;71206;48.564;-123.458;2024-01-15T12:13:46;18;15;
29062;PMS5003;71206;48.564;-123.458;2024-01-15T12:16:12;18;16;
29062;PMS5003;71206;48.564;-123.458;2024-01-15T12:18:42;34;25;
29062;PMS5003;71206;48.564;-123.458;2024-01-15T12:21:04;36;28;
29062;PMS5003;71206;48.564;-123.458;2024-01-15T12:23:28;34;27;
29062;PMS5003;71206;48.564;-123.458;2024-01-15T12:25:58;40;31;
29062;PMS5003;71206;48.564;-123.458;2024-01-15T12:28:19;40;31;
29062;PMS5003;71206;48.564;-123.458;2024-01-15T12:30:46;54;42;
29062;PMS5003;71206;48.564;-123.458;2024-01-15T12:33:10;43;28;
29062;PMS5003;71206;48.564;-123.458;2024-01-15T12:35:35;36;31;
29062;PMS5003;71206;48.564;-123.458;2024-01-15T12:38:01;48;37;
29062;PMS5003;71206;48.564;-123.458;2024-01-15T12:40:27;22;21;
29062;PMS5003;71206;48.564;-123.458;2024-01-15T12:42:51;18;16;
29062;PMS5003;71206;48.564;-123.458;2024-01-15T12:45:17;24;19;
29062;PMS5003;71206;48.564;-123.458;2024-01-15T12:47:44;18;18;
29062;PMS5003;71206;48.564;-123.458;2024-01-15T12:50:11;18;18;
29062;PMS5003;71206;48.564;-123.458;2024-01-15T12:52:33;24;19;
29062;PMS5003;71206;48.564;-123.458;2024-01-15T12:54:59;21;16;
29062;PMS5003;71206;48.564;-123.458;2024-01-15T12:57:25;28;21;
29062;PMS5003;71206;48.564;-123.458;2024-01-15T12:59:55;27;22;
29062;PMS5003;71206;48.564;-123.458;2024-01-15T13:02:16;40;33;
29062;PMS5003;71206;48.564;-123.458;2024-01-15T13:04:41;51;40;
29062;PMS5003;71206;48.564;-123.458;2024-01-15T13:07:08;54;37;
29062;PMS5003;71206;48.564;-123.458;2024-01-15T13:09:32;33;28;
29062;PMS5003;71206;48.564;-123.458;2024-01-15T13:11:57;40;31;
29062;PMS5003;71206;48.564;-123.458;2024-01-15T13:14:23;51;33;
29062;PMS5003;71206;48.564;-123.458;2024-01-15T13:16:48;51;40;
29062;PMS5003;71206;48.564;-123.458;2024-01-15T13:19:13;48;39;
29062;PMS5003;71206;48.564;-123.458;2024-01-15T13:21:39;34;25;
29062;PMS5003;71206;48.564;-123.458;2024-01-15T13:24:04;31;21;
29062;PMS5003;71206;48.564;-123.458;2024-01-15T13:26:30;31;24;
29062;PMS5003;71206;48.564;-123.458;2024-01-15T13:28:56;31;19;
29062;PMS5003;71206;48.564;-123.458;2024-01-15T13:31:21;22;16;
29062;PMS5003;71206;48.564;-123.458;2024-01-15T13:33:46;21;19;
29062;PMS5003;71206;48.564;-123.458;2024-01-15T13:36:12;27;22;
29062;PMS5003;71206;48.564;-123.458;2024-01-15T13:38:38;22;21;
29062;PMS5003;71206;48.564;-123.458;2024-01-15T13:41:02;24;18;
29062;PMS5003;71206;48.564;-123.458;2024-01-15T13:43:27;24;21;
29062;PMS5003;71206;48.564;-123.458;2024-01-15T13:45:53;30;22;
29062;PMS5003;71206;48.564;-123.458;2024-01-15T13:48:19;31;21;
29062;PMS5003;71206;48.564;-123.458;2024-01-15T13:50:44;34;19;
29062;PMS5003;71206;48.564;-123.458;2024-01-15T13:53:10;36;22;
29062;PMS5003;71206;48.564;-123.458;2024-01-15T13:55:36;27;24;
29062;PMS5003;71206;48.564;-123.458;2024-01-15T13:58:00;19;18;
29062;PMS5003;71206;48.564;-123.458;2024-01-15T14:00:30;19;19;
29062;PMS5003;71206;48.564;-123.458;2024-01-15T14:02:52;22;19;
29062;PMS5003;71206;48.564;-123.458;2024-01-15T14:05:16;24;19;
29062;PMS5003;71206;48.564;-123.458;2024-01-15T14:07:42;24;16;
29062;PMS5003;71206;48.564;-123.458;2024-01-15T14:10:07;24;18;
29062;PMS5003;71206;48.564;-123.458;2024-01-15T14:12:33;24;21;
29062;PMS5003;71206;48.564;-123.458;2024-01-15T14:14:59;28;24;
29062;PMS5003;71206;48.564;-123.458;2024-01-15T14:17:24;18;15;
29062;PMS5003;71206;48.564;-123.458;2024-01-15T14:19:49;21;19;
29062;PMS5003;71206;48.564;-123.458;2024-01-15T14:22:14;27;24;
29062;PMS5003;71206;48.564;-123.458;2024-01-15T14:24:40;28;24;
29062;PMS5003;71206;48.564;-123.458;2024-01-15T14:27:05;22;19;
29062;PMS5003;71206;48.564;-123.458;2024-01-15T14:29:31;24;22;
29062;PMS5003;71206;48.564;-123.458;2024-01-15T14:31:57;28;25;
29062;PMS5003;71206;48.564;-123.458;2024-01-15T14:34:22;16;16;
29062;PMS5003;71206;48.564;-123.458;2024-01-15T14:36:49;21;19;
29062;PMS5003;71206;48.564;-123.458;2024-01-15T14:39:12;25;22;
29062;PMS5003;71206;48.564;-123.458;2024-01-15T14:41:38;24;18;
29062;PMS5003;71206;48.564;-123.458;2024-01-15T14:44:04;24;16;
29062;PMS5003;71206;48.564;-123.458;2024-01-15T14:46:30;25;19;
29062;PMS5003;71206;48.564;-123.458;2024-01-15T14:49:00;21;19;
29062;PMS5003;71206;48.564;-123.458;2024-01-15T14:51:22;24;19;
29062;PMS5003;71206;48.564;-123.458;2024-01-15T14:53:47;22;18;
29062;PMS5003;71206;48.564;-123.458;2024-01-15T14:56:12;19;16;
29062;PMS5003;71206;48.564;-123.458;2024-01-15T14:58:37;27;19;
29062;PMS5003;71206;48.564;-123.458;2024-01-15T15:01:05;27;22;
29062;PMS5003;71206;48.564;-123.458;2024-01-15T15:03:33;28;22;
29062;PMS5003;71206;48.564;-123.458;2024-01-15T15:05:54;24;24;
29062;PMS5003;71206;48.564;-123.458;2024-01-15T15:08:19;28;27;
29062;PMS5003;71206;48.564;-123.458;2024-01-15T15:10:45;30;25;
29062;PMS5003;71206;48.564;-123.458;2024-01-15T15:13:11;27;25;
29062;PMS5003;71206;48.564;-123.458;2024-01-15T15:15:36;42;31;
29062;PMS5003;71206;48.564;-123.458;2024-01-15T15:18:02;39;27;
29062;PMS5003;71206;48.564;-123.458;2024-01-15T15:20:27;33;31;
29062;PMS5003;71206;48.564;-123.458;2024-01-15T15:22:53;28;21;
29062;PMS5003;71206;48.564;-123.458;2024-01-15T15:25:18;28;24;
29062;PMS5003;71206;48.564;-123.458;2024-01-15T15:27:44;27;24;